Have a Safe July 4th! 

Flight Track Log - Related Links

Times and Time Zones

All times are in EDT time to prevent confusion due to time zone crossing. See the ASQ6151 flight status page for this flight to view local times or setup timezone preferences in your user account.

Time Position Orientation Groundspeed Altitude Reporting Facility
EDT Latitude Longitude Course Direction KTS MPH feet Rate Location/Type
Sun 09:43:30 AM 42.0000 -87.8333 194° South 218 251 3,000  Level Chicago TRACON
Sun 09:44:34 AM 41.9219 -87.8233 175° South 247 284 4,700 1,810 Climbing Chicago Center
Sun 09:45:00 AM 41.7236 -88.1138 192° South  Level Estimated
Sun 09:45:36 AM 41.8608 -87.8625 206° Southwest 256 295 6,800  Level Chicago Center
Sun 09:46:00 AM 41.6375 -88.1825 189° South  Level Estimated
Sun 09:46:37 AM 41.7989 -87.9117 211° Southwest 259 298 9,000  Level Chicago Center
Sun 09:47:00 AM 41.5502 -88.1167 151° Southeast  Level FlightAware Approximate
Sun 09:47:39 AM 41.7242 -87.9344 193° South 272 313 10,900  Level Chicago Center
Sun 09:48:00 AM 41.4655 -88.1882 194° South  Level Estimated
Sun 09:48:41 AM 41.6450 -87.9592 193° South 289 333 12,600  Level Chicago Center
Sun 09:49:42 AM 41.5397 -87.9906 193° South 320 368 13,800 1,073 Climbing Chicago Center
Sun 09:50:44 AM 41.4411 -88.0206 193° South 348 400 14,800 968 Climbing Chicago Center
Sun 09:51:46 AM 41.3381 -88.0533 193° South 360 414 15,800 927 Climbing Chicago Center
Sun 09:52:47 AM 41.2367 -88.0853 193° South 370 426 16,700 878 Climbing Chicago Center
Sun 09:53:49 AM 41.1294 -88.0978 185° South 388 447 17,600 823 Climbing Chicago Center
Sun 09:54:51 AM 41.0228 -88.1111 185° South 388 447 18,400 774 Climbing Chicago Center
Sun 09:55:53 AM 40.9192 -88.1464 194° South 390 449 19,200 829 Climbing Chicago Center
Sun 09:56:54 AM 40.8225 -88.2022 204° Southwest 384 442 20,100 927 Climbing Chicago Center
Sun 09:57:56 AM 40.7022 -88.2692 203° Southwest 388 447 21,100 871 Climbing Chicago Center
Sun 09:58:58 AM 40.6033 -88.3269 204° Southwest 391 450 21,900 780 Climbing Chicago Center
Sun 09:59:59 AM 40.5031 -88.3831 203° Southwest 392 451 22,700 829 Climbing Chicago Center
Sun 10:01:01 AM 40.4039 -88.4383 203° Southwest 391 450 23,600 629 Climbing Chicago Center
Sun 10:02:03 AM 40.3042 -88.4947 203° Southwest 391 450 24,000 194 Climbing Chicago Center
Sun 10:03:05 AM 40.1947 -88.5553 203° Southwest 403 464 24,000  Level Chicago Center
Sun 10:04:07 AM 40.0881 -88.6161 204° Southwest 414 476 24,000  Level Chicago Center
Sun 10:05:08 AM 39.9889 -88.6714 203° Southwest 388 447 24,000  Level Chicago Center
Sun 10:06:10 AM 39.8875 -88.6853 186° South 369 425 24,000  Level Chicago Center
Sun 10:07:00 AM 39.7817 -88.7078 189° South 374 430 24,000  Level Kansas City Center
Sun 10:08:01 AM 39.6772 -88.7272 188° South 376 433 24,000  Level Kansas City Center
Sun 10:09:03 AM 39.5878 -88.7919 209° Southwest 371 427 24,000  Level Kansas City Center
Sun 10:10:05 AM 39.4981 -88.8594 210° Southwest 372 428 24,000  Level Kansas City Center
Sun 10:11:06 AM 39.4031 -88.9317 210° Southwest 377 434 24,000 -341 Level Kansas City Center
Sun 10:12:08 AM 39.3097 -89.0017 210° Southwest 384 442 23,300 -1,500 Descending Kansas City Center
Sun 10:13:10 AM 39.2178 -89.0683 209° Southwest 382 440 20,900 -2,585 Descending Kansas City Center
Sun 10:14:11 AM 39.1178 -89.1417 210° Southwest 361 415 18,000 -2,634 Descending Kansas City Center
Sun 10:15:13 AM 39.0717 -89.2492 241° Southwest 347 399 15,500 -2,468 Descending Kansas City Center
Sun 10:16:15 AM 39.0475 -89.3647 255° West 336 387 12,900 -2,390 Descending Kansas City Center
Sun 10:17:16 AM 39.0211 -89.4836 254° West 323 372 10,600 -1,610 Descending Kansas City Center
Sun 10:18:18 AM 38.9989 -89.5792 253° West 284 327 9,600 -1,016 Descending Kansas City Center
Sun 10:19:20 AM 38.9489 -89.6450 226° Southwest 267 307 8,500 -1,210 Descending Kansas City Center
Sun 10:20:22 AM 38.8903 -89.6967 214° Southwest 265 305 7,100 -732 Descending Kansas City Center
Sun 10:21:23 AM 38.8308 -89.7542 217° Southwest 267 307 7,000 -49 Descending Kansas City Center
Sun 10:22:25 AM 38.7703 -89.8111 216° Southwest 268 308 7,000  Level Kansas City Center
Sun 10:23:27 AM 38.7125 -89.8667 217° Southwest 264 304 7,000 -290 Level Kansas City Center
Sun 10:24:29 AM 38.6464 -89.9208 213° Southwest 246 283 6,400 -726 Descending Kansas City Center
Sun 10:25:31 AM 38.5925 -89.9536 205° Southwest 227 261 5,500 -732 Descending Kansas City Center
Sun 10:26:32 AM 38.5686 -89.9947 233° Southwest 196 226 4,900 -244 Descending Kansas City Center
Sun 10:27:34 AM 38.5925 -90.0456 301° West 178 205 5,000  Climbing Kansas City Center
Sun 10:28:36 AM 38.6181 -90.0964 303° West 173 199 4,900 -435 Descending Kansas City Center
Sun 10:29:38 AM 38.6431 -90.1472 302° West 171 197 4,100 -774 Descending Kansas City Center

Login

Don't have an account? Register now (free) for customized features, flight alerts, and more!